Mayo Airport
CYMA : now visible

Airfield :











YOU CAN JOIN US ON...

 
LOGIN :

Register | Disclaimer

   EN    FR    IT 

 









Legend :    VFR   Marginal VFR   IFR   Intensive IFR   Very Intensive IFR
Visi :
Ceiling :
>= 8 km
>= 3000ft
5 to 8 km
1000 to 3000 ft
1500m to 5 km
500 to 1000 ft
800 to 1500m
200 to 500 ft
< 800m
< 200 ft
Symbols :   Thunderstorms  Fog  Heavy snow  Heavy precipitations  Wind > 20 kt






- Airport Elevation : 1653 ft
- IATA code : YMA


CYMA - Mayo

CURRENT METAR :
  • 131500Z 02003KT 350V050 20SM FEW060 14/07 A2988 RMK SC2 SLP127 DENSITY ALT 2000FT

EXPIRED METARs :
  • 131400Z 01006KT 20SM FEW066 11/06 A2988 RMK AC1 SLP130
  • 131300Z 35005KT 20SM FEW040 FEW080 10/06 A2988 RMK SC2AC1 AC TR SLP131
  • 131200Z VRB02KT 20SM FEW030 SCT070 09/06 A2988 RMK SC1AC2 CLIMAT17.9/9.1/0.0 SLP132
  • 131100Z VRB02KT 20SM FEW030 BKN084 10/06 A2987 RMK SC2AC3 SLP128

TAF AMD TAF CYMA
Valid from the 13 at 14:00 until the 14 at 00:00 UTC


131449Z 1314/1324 02005KT P6SM FEW070
BECMG 1319/1321 12008KT RMK NXT FCST BY 131800Z
CZEG FIR / North America



MET'MAP, your aeronautical weather chart ! - Copyright ORBIFLY December 2007 - Disclaimer

ORBIFLY MET'MAP TEAM :

Programming & Development : Alexandra Zaïnal
Original concept : Baudouin d'Aumeries
Technical & hardware support : Manuel Goepfert
Assistance : Marc-Olivier Méhu




SOURCES & CREDITS :

   NOAA       Earth
Advisory